Veuillez saisir l'adresse e-mail associée à votre compte d'utilisateur. Un code de vérification vous sera adressé. Lorsque vous le recevrez, vous pourrez choisir un nouveau mot de passe

METAR TAF

[Source: ADDS]
METAR
LFCR 100530Z AUTO 32004KT 9999 BKN005 01/01 Q1028 =
LFBA 100530Z AUTO 09003KT 2000 BR NSC 01/M00 Q1030 TEMPO BKN002 =
LFBA 100500Z 1006/1015 VRB02KT CAVOK PROB30 TEMPO 1006/1008 2000 BR BKN002 LFSL 100530Z AUTO 30004KT 1000 R29/1300U BCFG VV/// M00/M00 Q1029 =
LFLW 100530Z AUTO 32004KT 9999 ////// M01/M01 Q1028 =
TAF
LFBA 100500Z 1006/1015 VRB02KT CAVOK PROB30 TEMPO 1006/1008 2000 BR BKN002 =
SR / SS: 07:18 / 16:14 UTC (LFCC 2019-12-10)